Time;durP1;ratioP1;P1;durP2;ratioP2;P2;SDS_P1;SDS_P2;PMS_P1;PMS_P2;Temp;Humidity;BMP_temperature;BMP_pressure;BME280_temperature;BME280_humidity;BME280_pressure;Samples;Min_cycle;Max_cycle;Signal;HPM_P1;HPM_P2
2021/09/28 00:00:39;;;;;;;;;;;;;;;7.87;65.39;96112.13;4985633;28;19917;-64
2021/09/28 00:03:04;;;;;;;;;;;;;;;7.60;66.23;96121.72;4987563;28;20295;-64
2021/09/28 00:05:30;;;;;;;;;;;;;;;7.80;66.13;96113.69;4986136;28;19936;-64
2021/09/28 00:07:55;;;;;;;;;;;;;;;8.41;63.48;96108.69;4987204;28;19939;-64
2021/09/28 00:10:20;;;;;;;;;;;;;;;8.25;63.25;96114.66;4986857;28;19930;-64
2021/09/28 00:12:46;;;;;;;;;;;;;;;8.79;61.50;96121.75;4987642;28;19922;-64
2021/09/28 00:15:11;;;;;;;;;;;;;;;8.59;63.02;96122.88;4986925;28;20586;-64
2021/09/28 00:17:36;;;;;;;;;;;;;;;8.86;61.36;96119.31;4987731;28;19968;-64
2021/09/28 00:20:02;;;;;;;;;;;;;;;8.85;61.43;96114.16;4987323;28;19914;-64
2021/09/28 00:22:28;;;;;;;;;;;;;;;9.11;60.59;96122.16;4987084;28;19914;-64
2021/09/28 00:24:53;;;;;;;;;;;;;;;9.45;60.26;96109.88;4987473;28;19924;-64
2021/09/28 00:27:18;;;;;;;;;;;;;;;9.09;61.38;96113.53;4987024;28;19917;-64
2021/09/28 00:29:43;;;;;;;;;;;;;;;8.81;61.43;96117.09;4987130;28;19998;-64
2021/09/28 00:32:09;;;;;;;;;;;;;;;8.95;60.63;96120.22;4987087;28;19993;-64
2021/09/28 00:34:34;;;;;;;;;;;;;;;9.29;59.60;96122.09;4986850;28;20464;-64
2021/09/28 00:36:59;;;;;;;;;;;;;;;9.25;60.09;96118.06;4977670;28;20072;-64
2021/09/28 00:39:25;;;;;;;;;;;;;;;8.88;61.09;96124.47;4984236;28;20370;-64
2021/09/28 00:41:50;;;;;;;;;;;;;;;8.73;61.64;96125.00;4988235;28;19993;-64
2021/09/28 00:44:15;;;;;;;;;;;;;;;8.05;63.90;96129.84;4977571;28;19986;-64
2021/09/28 00:46:40;;;;;;;;;;;;;;;7.74;64.28;96123.03;4990934;28;19986;-64
2021/09/28 00:49:06;;;;;;;;;;;;;;;8.10;63.79;96132.91;4991260;28;19986;-64
2021/09/28 00:51:31;;;;;;;;;;;;;;;8.11;63.77;96129.28;4990603;28;19986;-64
2021/09/28 00:53:56;;;;;;;;;;;;;;;7.38;66.60;96136.16;4990753;28;20389;-64
2021/09/28 00:56:22;;;;;;;;;;;;;;;7.90;64.04;96129.53;4989728;28;20388;-64
2021/09/28 00:58:47;;;;;;;;;;;;;;;7.18;67.25;96141.53;4989010;28;19985;-64
2021/09/28 01:01:13;;;;;;;;;;;;;;;7.35;66.33;96137.25;4986128;28;19967;-64
2021/09/28 01:03:38;;;;;;;;;;;;;;;7.50;65.94;96136.81;4987867;28;19990;-64
2021/09/28 01:06:03;;;;;;;;;;;;;;;7.68;65.21;96130.75;4990530;28;20411;-64
2021/09/28 01:08:29;;;;;;;;;;;;;;;7.45;66.87;96131.94;4991055;28;20291;-64
2021/09/28 01:10:54;;;;;;;;;;;;;;;7.41;65.78;96127.91;4990525;28;20076;-64
2021/09/28 01:13:20;;;;;;;;;;;;;;;7.60;65.45;96134.97;4990462;28;19966;-64
2021/09/28 01:16:00;;;;;;;;;;;;;;;7.39;66.38;96127.22;4989866;28;20475;-64
2021/09/28 01:18:30;;;;;;;;;;;;;;;7.70;65.14;96134.06;4990148;28;20386;-64
2021/09/28 01:20:55;;;;;;;;;;;;;;;7.63;66.47;96133.81;4990727;28;20498;-64
2021/09/28 01:23:21;;;;;;;;;;;;;;;7.30;66.60;96133.38;4989940;28;19993;-64
2021/09/28 01:25:46;;;;;;;;;;;;;;;7.02;66.88;96134.16;4990942;28;19966;-64
2021/09/28 01:28:11;;;;;;;;;;;;;;;7.41;66.11;96135.84;4989983;28;20000;-64
2021/09/28 01:30:36;;;;;;;;;;;;;;;7.27;65.87;96135.34;4989839;28;20426;-64
2021/09/28 01:33:02;;;;;;;;;;;;;;;7.33;65.53;96135.75;4990327;28;19921;-64
2021/09/28 01:35:27;;;;;;;;;;;;;;;7.09;67.47;96134.41;4990122;28;19918;-64
2021/09/28 01:37:52;;;;;;;;;;;;;;;7.39;65.17;96140.47;4978092;28;19921;-64
2021/09/28 01:40:18;;;;;;;;;;;;;;;7.60;64.81;96142.91;4990209;28;19913;-64
2021/09/28 01:42:43;;;;;;;;;;;;;;;6.93;67.07;96143.78;4984840;28;19953;-64
2021/09/28 01:45:08;;;;;;;;;;;;;;;7.15;65.69;96139.97;4981908;28;20344;-64
2021/09/28 01:47:34;;;;;;;;;;;;;;;7.05;66.44;96136.53;4989809;28;20283;-64
2021/09/28 01:49:59;;;;;;;;;;;;;;;6.88;67.56;96141.56;4989752;28;19914;-64
2021/09/28 01:52:24;;;;;;;;;;;;;;;7.41;65.43;96141.16;4989221;28;19983;-64
2021/09/28 01:54:49;;;;;;;;;;;;;;;7.45;64.62;96131.94;4989575;28;20064;-64
2021/09/28 01:57:15;;;;;;;;;;;;;;;7.27;65.60;96145.09;4989725;28;19994;-64
2021/09/28 01:59:40;;;;;;;;;;;;;;;7.45;65.51;96141.72;4989630;28;19918;-64
2021/09/28 02:02:05;;;;;;;;;;;;;;;7.98;63.34;96139.38;4987291;28;19921;-64
2021/09/28 02:04:30;;;;;;;;;;;;;;;7.84;63.31;96141.56;4989811;28;19917;-64
2021/09/28 02:06:56;;;;;;;;;;;;;;;8.08;63.04;96144.63;4989213;28;20423;-64
2021/09/28 02:09:21;;;;;;;;;;;;;;;8.14;61.60;96152.00;4989437;28;20020;-64
2021/09/28 02:11:46;;;;;;;;;;;;;;;8.27;61.55;96147.16;4989126;28;20294;-64
2021/09/28 02:14:12;;;;;;;;;;;;;;;8.42;61.03;96146.63;4989281;28;19925;-64
2021/09/28 02:16:37;;;;;;;;;;;;;;;8.58;60.29;96153.94;4988051;28;20017;-64
2021/09/28 02:19:02;;;;;;;;;;;;;;;8.26;61.63;96155.28;4989279;28;20302;-64
2021/09/28 02:21:27;;;;;;;;;;;;;;;8.37;61.37;96155.03;4988123;28;19909;-64
2021/09/28 02:23:53;;;;;;;;;;;;;;;8.63;59.68;96153.44;4989100;28;19945;-64
2021/09/28 02:26:18;;;;;;;;;;;;;;;8.92;59.17;96160.34;4988782;28;19917;-64
2021/09/28 02:28:43;;;;;;;;;;;;;;;8.56;60.59;96150.56;4989615;28;20021;-64
2021/09/28 02:31:08;;;;;;;;;;;;;;;8.85;59.84;96156.63;4989029;28;19921;-64
2021/09/28 02:33:34;;;;;;;;;;;;;;;9.06;58.31;96146.53;4989569;28;19914;-64
2021/09/28 02:35:59;;;;;;;;;;;;;;;9.01;58.89;96143.50;4987398;28;19913;-64
2021/09/28 02:38:24;;;;;;;;;;;;;;;8.37;60.26;96143.63;4978572;28;19917;-64
2021/09/28 02:40:49;;;;;;;;;;;;;;;8.64;59.62;96153.31;4989162;28;20291;-64
2021/09/28 02:43:15;;;;;;;;;;;;;;;8.83;58.04;96146.16;4979984;28;19921;-65
2021/09/28 02:45:40;;;;;;;;;;;;;;;8.74;59.39;96144.44;4985012;28;20020;-64
2021/09/28 02:48:06;;;;;;;;;;;;;;;9.03;57.76;96144.19;4989214;28;19914;-64
2021/09/28 02:50:33;;;;;;;;;;;;;;;9.00;57.14;96149.81;4989154;28;20398;-64
2021/09/28 02:52:59;;;;;;;;;;;;;;;9.30;56.56;96139.72;4989090;28;20244;-64
2021/09/28 02:55:24;;;;;;;;;;;;;;;9.08;56.83;96138.41;4987269;28;19914;-64
2021/09/28 02:57:49;;;;;;;;;;;;;;;9.16;57.09;96143.78;4989074;28;20299;-64
2021/09/28 03:00:15;;;;;;;;;;;;;;;9.18;57.13;96141.78;4986661;28;19996;-64
2021/09/28 03:02:40;;;;;;;;;;;;;;;9.23;56.86;96146.66;4988603;28;19917;-64
2021/09/28 03:05:05;;;;;;;;;;;;;;;9.11;56.96;96145.25;4987792;28;19936;-64
2021/09/28 03:07:31;;;;;;;;;;;;;;;9.20;56.50;96144.28;4988232;28;19918;-64
2021/09/28 03:09:56;;;;;;;;;;;;;;;9.02;56.67;96145.19;4988441;28;20435;-64
2021/09/28 03:12:21;;;;;;;;;;;;;;;9.08;56.26;96155.19;4988701;28;19918;-65
2021/09/28 03:14:46;;;;;;;;;;;;;;;9.10;56.60;96156.84;4987083;28;19924;-64
2021/09/28 03:17:12;;;;;;;;;;;;;;;9.17;55.93;96161.38;4988424;28;19926;-65
2021/09/28 03:19:37;;;;;;;;;;;;;;;9.25;56.26;96165.09;4987954;28;19917;-64
2021/09/28 03:22:02;;;;;;;;;;;;;;;9.13;56.20;96165.34;4988766;28;19961;-64
2021/09/28 03:24:28;;;;;;;;;;;;;;;9.14;56.32;96167.00;4988532;28;20016;-64
2021/09/28 03:26:53;;;;;;;;;;;;;;;9.16;55.14;96169.50;4988327;28;19918;-64
2021/09/28 03:29:18;;;;;;;;;;;;;;;9.06;55.91;96173.09;4988161;28;20003;-64
2021/09/28 03:31:43;;;;;;;;;;;;;;;8.92;56.25;96178.94;4988507;28;19944;-65
2021/09/28 03:34:09;;;;;;;;;;;;;;;8.92;56.60;96185.09;4988048;28;20011;-65
2021/09/28 03:36:34;;;;;;;;;;;;;;;8.93;55.90;96184.09;4982077;28;20306;-64
2021/09/28 03:38:59;;;;;;;;;;;;;;;8.86;56.03;96184.84;4981866;28;19925;-64
2021/09/28 03:41:24;;;;;;;;;;;;;;;8.87;56.66;96189.19;4988180;28;19922;-64
2021/09/28 03:43:50;;;;;;;;;;;;;;;8.89;55.91;96187.19;4987745;28;19914;-64
2021/09/28 03:46:15;;;;;;;;;;;;;;;8.94;55.26;96193.72;4987916;28;19920;-64
2021/09/28 03:48:40;;;;;;;;;;;;;;;8.97;56.34;96195.25;4987973;28;19913;-64
2021/09/28 03:51:07;;;;;;;;;;;;;;;9.01;57.46;96196.63;4988013;28;19923;-64
2021/09/28 03:53:32;;;;;;;;;;;;;;;9.12;57.67;96208.84;4987906;28;19917;-64
2021/09/28 03:55:57;;;;;;;;;;;;;;;9.26;57.19;96212.75;4987897;28;19921;-64
2021/09/28 03:58:22;;;;;;;;;;;;;;;9.28;55.77;96208.09;4987587;28;19952;-65
2021/09/28 04:00:48;;;;;;;;;;;;;;;9.35;55.97;96215.47;4986533;28;20354;-65
2021/09/28 04:03:13;;;;;;;;;;;;;;;9.45;56.74;96213.53;4987457;28;20060;-64
2021/09/28 04:05:38;;;;;;;;;;;;;;;9.61;57.99;96211.97;4987987;28;19994;-64
2021/09/28 04:08:04;;;;;;;;;;;;;;;9.70;57.48;96214.50;4986236;28;20004;-64
2021/09/28 04:10:29;;;;;;;;;;;;;;;9.76;57.46;96205.06;4987206;28;20445;-64
2021/09/28 04:12:54;;;;;;;;;;;;;;;9.78;57.50;96213.72;4987867;28;20326;-64
2021/09/28 04:15:23;;;;;;;;;;;;;;;9.81;57.16;96212.59;4978568;28;20051;-64
2021/09/28 04:17:49;;;;;;;;;;;;;;;9.82;56.17;96204.44;4987976;28;19981;-64
2021/09/28 04:20:14;;;;;;;;;;;;;;;9.83;56.22;96210.59;4987399;28;19986;-64
2021/09/28 04:22:39;;;;;;;;;;;;;;;9.84;55.34;96209.59;4987559;28;19981;-64
2021/09/28 04:25:05;;;;;;;;;;;;;;;9.91;54.46;96220.44;4987658;28;20221;-64
2021/09/28 04:27:30;;;;;;;;;;;;;;;10.03;54.44;96218.34;4987667;28;20530;-65
2021/09/28 04:29:55;;;;;;;;;;;;;;;9.98;53.91;96213.50;4987053;28;19986;-65
2021/09/28 04:32:21;;;;;;;;;;;;;;;9.98;54.62;96216.16;4987878;28;19970;-64
2021/09/28 04:34:46;;;;;;;;;;;;;;;10.10;54.47;96230.88;4987227;28;20013;-64
2021/09/28 04:37:11;;;;;;;;;;;;;;;10.09;53.02;96229.22;4976034;28;19966;-65
2021/09/28 04:39:37;;;;;;;;;;;;;;;10.08;53.09;96226.69;4986555;28;20096;-64
2021/09/28 04:42:03;;;;;;;;;;;;;;;10.16;53.39;96221.41;4986059;28;19973;-65
2021/09/28 04:44:28;;;;;;;;;;;;;;;10.04;53.14;96220.00;4987643;28;20431;-64
2021/09/28 04:46:53;;;;;;;;;;;;;;;9.92;53.10;96219.44;4987403;28;20049;-64
2021/09/28 04:49:18;;;;;;;;;;;;;;;9.82;53.71;96219.56;4987402;28;19993;-64
2021/09/28 04:51:43;;;;;;;;;;;;;;;9.32;54.72;96235.22;4987061;28;20024;-65
2021/09/28 04:54:09;;;;;;;;;;;;;;;9.31;53.94;96234.38;4986793;28;19970;-64
2021/09/28 04:56:35;;;;;;;;;;;;;;;9.24;55.15;96233.31;4987550;28;20025;-65
2021/09/28 04:59:01;;;;;;;;;;;;;;;8.92;55.77;96232.88;4985479;28;20495;-65
2021/09/28 05:01:26;;;;;;;;;;;;;;;9.16;57.27;96228.78;4982577;28;19970;-65
2021/09/28 05:03:51;;;;;;;;;;;;;;;9.42;56.25;96224.50;4985163;28;20092;-65
2021/09/28 05:06:16;;;;;;;;;;;;;;;9.45;53.84;96226.81;4987330;28;19982;-65
2021/09/28 05:08:42;;;;;;;;;;;;;;;9.46;55.51;96234.63;4987875;28;19985;-65
2021/09/28 05:11:11;;;;;;;;;;;;;;;9.46;54.45;96237.28;4987219;28;19986;-65
2021/09/28 05:13:36;;;;;;;;;;;;;;;9.59;53.66;96238.72;4987527;28;19970;-64
2021/09/28 05:16:01;;;;;;;;;;;;;;;9.37;53.48;96242.72;4986962;28;20002;-65
2021/09/28 05:18:27;;;;;;;;;;;;;;;9.25;53.52;96242.97;4986574;28;20489;-65
2021/09/28 05:20:52;;;;;;;;;;;;;;;8.65;54.42;96250.56;4987564;28;20346;-64
2021/09/28 05:23:17;;;;;;;;;;;;;;;9.06;55.58;96247.47;4986843;28;19986;-64
2021/09/28 05:25:42;;;;;;;;;;;;;;;9.21;54.54;96244.25;4987672;28;20064;-64
2021/09/28 05:28:08;;;;;;;;;;;;;;;9.22;53.68;96242.44;4988672;28;19982;-65
2021/09/28 05:30:33;;;;;;;;;;;;;;;9.21;53.68;96244.25;4990541;28;20085;-65
2021/09/28 05:32:58;;;;;;;;;;;;;;;9.42;55.32;96251.06;4990939;28;19981;-64
2021/09/28 05:35:23;;;;;;;;;;;;;;;9.30;53.00;96253.97;4990381;28;19990;-64
2021/09/28 05:37:49;;;;;;;;;;;;;;;9.37;53.62;96253.34;4991213;28;20375;-64
2021/09/28 05:40:14;;;;;;;;;;;;;;;8.99;54.61;96251.72;4990282;28;19982;-64
2021/09/28 05:42:39;;;;;;;;;;;;;;;9.33;54.13;96250.16;5000527;28;19917;-64
2021/09/28 05:45:05;;;;;;;;;;;;;;;9.37;53.81;96256.00;4990484;28;19925;-64
2021/09/28 05:47:30;;;;;;;;;;;;;;;9.40;53.42;96259.19;4990011;28;20389;-64
2021/09/28 05:49:55;;;;;;;;;;;;;;;9.30;53.47;96258.44;4990146;28;20387;-64
2021/09/28 05:52:21;;;;;;;;;;;;;;;9.39;54.50;96256.69;4990580;28;19988;-64
2021/09/28 05:54:49;;;;;;;;;;;;;;;9.25;53.86;96260.75;4988719;28;20299;-64
2021/09/28 05:57:17;;;;;;;;;;;;;;;9.38;53.72;96258.50;4990394;28;19917;-65
2021/09/28 05:59:43;;;;;;;;;;;;;;;8.70;54.17;96263.34;4988068;28;19914;-64
2021/09/28 06:02:08;;;;;;;;;;;;;;;9.12;54.23;96266.44;4986114;28;19920;-64
2021/09/28 06:04:33;;;;;;;;;;;;;;;9.32;52.77;96264.44;4990023;28;19917;-64
2021/09/28 06:06:59;;;;;;;;;;;;;;;9.61;53.32;96273.94;4989359;28;20449;-64
2021/09/28 06:09:25;;;;;;;;;;;;;;;9.48;52.49;96270.88;4989341;28;20309;-64
2021/09/28 06:11:51;;;;;;;;;;;;;;;9.21;52.93;96276.13;4988545;28;20005;-65
2021/09/28 06:14:17;;;;;;;;;;;;;;;9.73;52.92;96274.53;5003758;28;19924;-64
2021/09/28 06:16:42;;;;;;;;;;;;;;;9.91;52.35;96282.47;4989957;28;20008;-64
2021/09/28 06:19:07;;;;;;;;;;;;;;;9.94;53.52;96281.31;4989156;28;19917;-65
2021/09/28 06:21:33;;;;;;;;;;;;;;;10.07;53.14;96276.41;4989261;28;20120;-65
2021/09/28 06:23:58;;;;;;;;;;;;;;;10.22;52.90;96279.31;4989010;28;19981;-64
2021/09/28 06:26:23;;;;;;;;;;;;;;;10.25;53.20;96272.84;4987990;28;20067;-64
2021/09/28 06:28:48;;;;;;;;;;;;;;;10.30;51.74;96270.53;4989195;28;20475;-65
2021/09/28 06:31:14;;;;;;;;;;;;;;;10.40;51.60;96269.59;4989224;28;19917;-65
2021/09/28 06:33:39;;;;;;;;;;;;;;;10.30;51.09;96267.03;4985687;28;20343;-64
2021/09/28 06:36:04;;;;;;;;;;;;;;;10.03;51.77;96275.03;4989021;28;19986;-64
2021/09/28 06:38:30;;;;;;;;;;;;;;;9.73;57.91;96277.19;4988984;28;20081;-64
2021/09/28 06:40:55;;;;;;;;;;;;;;;9.84;58.21;96276.09;4983102;28;20013;-64
2021/09/28 06:43:20;;;;;;;;;;;;;;;9.94;55.19;96282.16;4988759;28;20063;-64
2021/09/28 06:45:45;;;;;;;;;;;;;;;10.00;57.60;96275.38;4990884;28;19928;-65
2021/09/28 06:48:11;;;;;;;;;;;;;;;10.12;56.88;96278.59;4990666;28;19990;-65
2021/09/28 06:50:36;;;;;;;;;;;;;;;10.22;56.75;96273.16;4991076;28;20064;-65
2021/09/28 06:53:01;;;;;;;;;;;;;;;10.29;56.28;96279.50;4989297;28;20400;-65
2021/09/28 06:55:26;;;;;;;;;;;;;;;10.44;55.49;96278.91;4990293;28;19976;-65
2021/09/28 06:57:52;;;;;;;;;;;;;;;10.56;55.21;96276.78;4990151;28;20004;-65
2021/09/28 07:00:17;;;;;;;;;;;;;;;10.64;55.35;96281.31;4985871;28;19914;-64
2021/09/28 07:02:42;;;;;;;;;;;;;;;10.82;54.95;96270.53;4985825;28;20167;-64
2021/09/28 07:05:11;;;;;;;;;;;;;;;10.98;53.84;96272.38;4990955;28;20007;-64
2021/09/28 07:07:37;;;;;;;;;;;;;;;11.22;52.90;96268.09;4990459;28;20068;-65
2021/09/28 07:10:03;;;;;;;;;;;;;;;11.32;52.28;96270.59;4990425;28;19976;-65
2021/09/28 07:12:28;;;;;;;;;;;;;;;11.24;52.79;96276.75;4978291;28;19925;-65
2021/09/28 07:14:54;;;;;;;;;;;;;;;11.31;52.54;96288.44;4981190;28;19922;-65
2021/09/28 07:17:19;;;;;;;;;;;;;;;11.45;49.72;96281.59;4987130;28;19926;-65
2021/09/28 07:19:44;;;;;;;;;;;;;;;11.44;51.96;96284.41;4985780;28;20660;-65
2021/09/28 07:22:09;;;;;;;;;;;;;;;11.51;52.08;96278.25;4986558;28;19921;-65
2021/09/28 07:24:35;;;;;;;;;;;;;;;11.04;48.04;96276.19;4987380;28;20123;-65
2021/09/28 07:27:00;;;;;;;;;;;;;;;10.78;48.65;96285.16;4984801;28;20334;-75
2021/09/28 07:29:25;;;;;;;;;;;;;;;11.07;50.63;96278.53;4986604;28;19937;-74
2021/09/28 07:31:50;;;;;;;;;;;;;;;11.06;52.59;96280.38;4984827;28;20734;-67
2021/09/28 07:34:16;;;;;;;;;;;;;;;11.45;50.58;96276.25;4985486;28;20052;-66
2021/09/28 07:36:41;;;;;;;;;;;;;;;11.74;50.06;96279.41;4985078;28;19949;-66
2021/09/28 07:39:06;;;;;;;;;;;;;;;11.51;46.98;96288.94;4982895;28;19925;-66
2021/09/28 07:41:32;;;;;;;;;;;;;;;11.48;51.40;96285.75;4983207;28;19918;-66
2021/09/28 07:43:57;;;;;;;;;;;;;;;11.71;50.81;96285.06;4983228;28;19917;-66
2021/09/28 07:46:22;;;;;;;;;;;;;;;11.90;50.11;96287.38;4983210;28;19924;-66
2021/09/28 07:48:48;;;;;;;;;;;;;;;11.97;47.58;96284.03;4983975;28;19929;-66
2021/09/28 07:51:14;;;;;;;;;;;;;;;12.12;48.71;96289.50;4982502;28;20243;-66
2021/09/28 07:53:40;;;;;;;;;;;;;;;12.15;49.19;96286.50;4982299;28;19913;-66
2021/09/28 07:56:05;;;;;;;;;;;;;;;12.12;48.47;96297.53;4983390;28;19917;-67
2021/09/28 07:58:30;;;;;;;;;;;;;;;12.11;49.08;96293.19;4982010;28;20384;-66
2021/09/28 08:00:55;;;;;;;;;;;;;;;12.29;48.96;96295.63;4979148;28;19917;-67
2021/09/28 08:03:21;;;;;;;;;;;;;;;12.51;48.35;96294.03;4982181;28;19917;-67
2021/09/28 08:05:47;;;;;;;;;;;;;;;12.75;48.18;96294.09;4983947;28;20013;-67
2021/09/28 08:08:12;;;;;;;;;;;;;;;12.83;47.46;96290.53;4983473;28;19924;-67
2021/09/28 08:10:38;;;;;;;;;;;;;;;13.00;44.92;96296.66;4983544;28;20438;-67
2021/09/28 08:13:05;;;;;;;;;;;;;;;13.23;44.02;96291.34;4984303;28;19918;-67
2021/09/28 08:15:31;;;;;;;;;;;;;;;13.26;44.21;96298.97;4983201;28;19932;-67
2021/09/28 08:17:56;;;;;;;;;;;;;;;13.03;44.39;96296.31;4983499;28;19999;-67
2021/09/28 08:20:22;;;;;;;;;;;;;;;12.97;46.36;96294.31;4983437;28;19920;-66
2021/09/28 08:22:47;;;;;;;;;;;;;;;13.12;45.33;96302.44;4978490;28;19965;-66
2021/09/28 08:25:16;;;;;;;;;;;;;;;13.37;43.82;96289.72;4974737;28;19914;-66
2021/09/28 08:30:25;;;;;;;;;;;;;;;12.86;45.74;96295.53;4982839;28;19944;-66
2021/09/28 08:32:50;;;;;;;;;;;;;;;13.20;46.09;96281.00;4982532;28;20299;-67
2021/09/28 08:35:16;;;;;;;;;;;;;;;13.80;43.19;96280.28;4981244;28;20412;-67
2021/09/28 08:37:41;;;;;;;;;;;;;;;13.70;45.06;96280.56;4982359;28;19992;-67
2021/09/28 08:40:07;;;;;;;;;;;;;;;13.84;43.42;96284.31;4982913;28;19918;-67
2021/09/28 08:42:32;;;;;;;;;;;;;;;13.96;44.52;96282.03;4982186;28;19918;-67
2021/09/28 08:44:57;;;;;;;;;;;;;;;13.61;44.27;96277.16;4982937;28;19917;-67
2021/09/28 08:47:39;;;;;;;;;;;;;;;14.11;44.31;96278.53;4982866;28;19918;-67
2021/09/28 08:50:05;;;;;;;;;;;;;;;14.53;42.16;96276.19;4981626;28;20017;-67
2021/09/28 08:52:30;;;;;;;;;;;;;;;13.50;44.33;96285.59;4982904;28;19924;-67
2021/09/28 08:54:56;;;;;;;;;;;;;;;13.04;46.78;96276.59;4981164;28;19918;-67
2021/09/28 08:57:21;;;;;;;;;;;;;;;14.01;44.73;96279.63;4982977;28;19918;-67
2021/09/28 08:59:49;;;;;;;;;;;;;;;14.57;42.04;96282.81;4982097;28;20469;-67
2021/09/28 09:02:15;;;;;;;;;;;;;;;14.63;41.31;96278.56;4979767;28;20032;-67
2021/09/28 09:04:40;;;;;;;;;;;;;;;13.57;43.35;96284.69;4986773;28;20004;-67
2021/09/28 09:07:21;;;;;;;;;;;;;;;12.95;45.83;96282.97;4986699;28;19918;-67
2021/09/28 09:09:47;;;;;;;;;;;;;;;14.18;42.17;96277.59;4985191;28;20451;-66
2021/09/28 09:12:12;;;;;;;;;;;;;;;13.00;44.94;96277.94;4986098;28;20002;-67
2021/09/28 09:14:38;;;;;;;;;;;;;;;13.34;45.59;96271.34;4986105;28;19918;-67
2021/09/28 09:17:04;;;;;;;;;;;;;;;13.52;44.49;96275.53;4986297;28;19926;-67
2021/09/28 09:19:29;;;;;;;;;;;;;;;14.21;43.88;96277.22;4985869;28;19918;-67
2021/09/28 09:21:55;;;;;;;;;;;;;;;14.92;42.96;96263.47;4986122;28;19980;-67
2021/09/28 09:24:39;;;;;;;;;;;;;;;15.46;41.73;96259.44;4985777;28;19987;-67
2021/09/28 09:27:05;;;;;;;;;;;;;;;16.21;40.23;96258.09;4984635;28;19952;-67
2021/09/28 09:29:31;;;;;;;;;;;;;;;16.59;37.14;96262.22;4985823;28;20008;-67
2021/09/28 09:31:56;;;;;;;;;;;;;;;14.79;41.83;96274.88;4972661;28;20017;-67
2021/09/28 09:34:22;;;;;;;;;;;;;;;14.97;42.21;96269.09;4966258;28;20360;-67
2021/09/28 09:36:53;;;;;;;;;;;;;;;15.73;38.13;96267.72;4966911;28;20017;-67
2021/09/28 09:39:20;;;;;;;;;;;;;;;14.87;38.49;96266.72;4965969;28;19926;-67
2021/09/28 09:41:47;;;;;;;;;;;;;;;15.55;39.69;96261.97;4965357;28;20338;-67
2021/09/28 09:44:15;;;;;;;;;;;;;;;15.40;40.85;96260.19;4964794;28;19945;-67
2021/09/28 09:46:46;;;;;;;;;;;;;;;15.77;38.60;96256.59;4961252;28;20390;-67
2021/09/28 09:49:15;;;;;;;;;;;;;;;15.16;41.45;96256.06;4966215;28;19972;-67
2021/09/28 09:51:44;;;;;;;;;;;;;;;15.43;38.44;96251.75;4966256;28;20008;-67
2021/09/28 09:54:09;;;;;;;;;;;;;;;15.55;40.79;96252.09;4965401;28;19920;-67
2021/09/28 09:56:44;;;;;;;;;;;;;;;15.90;38.54;96250.50;4966557;28;19918;-68
2021/09/28 09:59:10;;;;;;;;;;;;;;;16.34;38.67;96246.59;4957115;28;20267;-67
2021/09/28 10:01:36;;;;;;;;;;;;;;;16.83;34.93;96254.66;4969056;28;19914;-67
2021/09/28 10:04:14;;;;;;;;;;;;;;;16.70;35.15;96250.09;4965598;28;20013;-68
2021/09/28 10:06:39;;;;;;;;;;;;;;;16.77;35.86;96252.78;4965945;28;19918;-68
2021/09/28 10:09:23;;;;;;;;;;;;;;;16.68;37.37;96254.81;4965702;28;19922;-69
2021/09/28 10:11:52;;;;;;;;;;;;;;;16.51;38.64;96255.19;4965915;28;19917;-68
2021/09/28 10:14:31;;;;;;;;;;;;;;;16.57;38.89;96250.03;4964041;28;19957;-69
2021/09/28 10:16:59;;;;;;;;;;;;;;;16.67;38.45;96253.19;4966347;28;20230;-69
2021/09/28 10:19:32;;;;;;;;;;;;;;;17.02;35.22;96246.84;4965640;28;19918;-68
2021/09/28 10:21:58;;;;;;;;;;;;;;;16.37;36.54;96248.09;4966077;28;19968;-68
2021/09/28 10:24:30;;;;;;;;;;;;;;;15.14;38.55;96247.38;4953261;28;20379;-68
2021/09/28 10:27:01;;;;;;;;;;;;;;;13.68;42.80;96250.50;4965659;28;19924;-68
2021/09/28 10:29:45;;;;;;;;;;;;;;;14.00;40.43;96242.34;4965400;28;20024;-67
2021/09/28 10:32:25;;;;;;;;;;;;;;;14.61;39.50;96243.09;4965495;28;20443;-67
2021/09/28 10:35:10;;;;;;;;;;;;;;;14.08;41.18;96250.28;4965123;28;19922;-68
2021/09/28 10:37:38;;;;;;;;;;;;;;;14.27;42.20;96253.38;4965520;28;20397;-67
2021/09/28 10:40:04;;;;;;;;;;;;;;;15.12;39.47;96239.53;4965511;28;20465;-67
2021/09/28 10:42:51;;;;;;;;;;;;;;;14.92;42.22;96239.34;4965235;28;19926;-68
2021/09/28 10:45:28;;;;;;;;;;;;;;;15.68;40.45;96240.66;4958247;28;19918;-68
2021/09/28 10:48:11;;;;;;;;;;;;;;;15.45;38.96;96252.41;4965237;28;19961;-67
2021/09/28 10:50:37;;;;;;;;;;;;;;;16.01;37.78;96244.56;4951359;28;19922;-68
2021/09/28 10:53:03;;;;;;;;;;;;;;;16.33;38.26;96239.56;4963767;28;19972;-69
2021/09/28 10:55:29;;;;;;;;;;;;;;;16.51;38.27;96236.38;4964765;28;20430;-67
2021/09/28 10:57:55;;;;;;;;;;;;;;;16.63;37.72;96235.78;4954358;28;20340;-68
2021/09/28 11:00:21;;;;;;;;;;;;;;;16.61;36.86;96230.63;4959910;28;19950;-68
2021/09/28 11:02:52;;;;;;;;;;;;;;;16.25;38.42;96231.69;4964604;28;20243;-68
2021/09/28 11:05:32;;;;;;;;;;;;;;;15.54;37.31;96230.81;4965062;28;20290;-70
2021/09/28 11:07:58;;;;;;;;;;;;;;;15.41;37.11;96237.72;4960313;28;20277;-68
2021/09/28 11:10:23;;;;;;;;;;;;;;;16.04;38.83;96229.94;4964077;28;20272;-68
2021/09/28 11:12:48;;;;;;;;;;;;;;;15.49;37.10;96234.06;4964566;28;20035;-67
2021/09/28 11:15:17;;;;;;;;;;;;;;;16.35;36.16;96225.97;4963387;28;19953;-68
2021/09/28 11:17:42;;;;;;;;;;;;;;;17.00;34.07;96227.41;4963468;28;19918;-66
2021/09/28 11:20:17;;;;;;;;;;;;;;;16.93;36.58;96226.56;4964373;28;19953;-69
2021/09/28 11:22:43;;;;;;;;;;;;;;;16.88;37.14;96230.69;4962182;28;20350;-68
2021/09/28 11:25:12;;;;;;;;;;;;;;;16.94;37.39;96225.53;4967905;28;19914;-69
2021/09/28 11:27:38;;;;;;;;;;;;;;;17.19;37.38;96225.78;4961032;28;20259;-69
2021/09/28 11:30:11;;;;;;;;;;;;;;;17.52;36.27;96221.44;4962168;28;19998;-69
2021/09/28 11:32:37;;;;;;;;;;;;;;;17.64;35.48;96216.28;4963955;28;19926;-70
2021/09/28 11:35:02;;;;;;;;;;;;;;;17.62;36.18;96213.78;4963737;28;20394;-67
2021/09/28 11:37:29;;;;;;;;;;;;;;;18.13;34.92;96213.28;4964071;28;19961;-68
2021/09/28 11:39:55;;;;;;;;;;;;;;;18.86;30.96;96207.81;4962164;28;20383;-68
2021/09/28 11:42:23;;;;;;;;;;;;;;;18.54;32.77;96201.31;4962426;28;19925;-69
2021/09/28 11:44:49;;;;;;;;;;;;;;;18.77;32.51;96197.25;4959385;28;19914;-69
2021/09/28 11:47:16;;;;;;;;;;;;;;;18.59;34.18;96195.28;4963310;28;20410;-70
2021/09/28 11:49:48;;;;;;;;;;;;;;;18.68;33.68;96195.88;4963485;28;19917;-70
2021/09/28 11:52:13;;;;;;;;;;;;;;;18.69;31.34;96192.13;4962880;28;20001;-70
2021/09/28 11:54:42;;;;;;;;;;;;;;;18.85;30.92;96190.81;4962172;28;19986;-68
2021/09/28 11:57:08;;;;;;;;;;;;;;;19.15;31.60;96184.78;4958008;28;19997;-68
2021/09/28 11:59:34;;;;;;;;;;;;;;;19.25;31.40;96176.19;4956159;28;19993;-68
2021/09/28 12:01:59;;;;;;;;;;;;;;;19.37;30.25;96186.31;4961457;28;20212;-68
2021/09/28 12:09:44;;;;;;;;;;;;;;;19.99;30.77;96182.84;4959283;28;19986;-69
2021/09/28 12:12:10;;;;;;;;;;;;;;;20.23;30.82;96169.47;4963275;28;20049;-70
2021/09/28 12:14:51;;;;;;;;;;;;;;;20.69;27.73;96169.91;4963275;28;20398;-69
2021/09/28 12:17:20;;;;;;;;;;;;;;;20.67;27.14;96163.09;4961838;28;20333;-68
2021/09/28 12:19:46;;;;;;;;;;;;;;;20.58;28.97;96159.84;4962394;28;19994;-69
2021/09/28 12:22:12;;;;;;;;;;;;;;;21.10;26.74;96153.91;4962024;28;19974;-70
2021/09/28 12:24:41;;;;;;;;;;;;;;;21.06;25.35;96151.88;4963564;28;19922;-68
2021/09/28 12:27:07;;;;;;;;;;;;;;;21.09;26.06;96148.72;4961982;28;19925;-70
2021/09/28 12:29:37;;;;;;;;;;;;;;;20.90;28.55;96150.69;4963114;28;19918;-70
2021/09/28 12:32:04;;;;;;;;;;;;;;;20.12;26.66;96148.59;4962804;28;19975;-70
2021/09/28 12:34:29;;;;;;;;;;;;;;;21.02;26.02;96142.56;4962930;28;19975;-67
2021/09/28 12:37:01;;;;;;;;;;;;;;;21.44;25.42;96150.66;4964783;28;19965;-68
2021/09/28 12:39:26;;;;;;;;;;;;;;;21.70;25.73;96142.28;4959791;28;19928;-69
2021/09/28 12:41:54;;;;;;;;;;;;;;;21.86;24.45;96138.84;4985865;28;20445;-69
2021/09/28 12:44:23;;;;;;;;;;;;;;;22.52;26.66;96136.91;4985870;28;19917;-69
2021/09/28 12:46:48;;;;;;;;;;;;;;;23.49;25.92;96119.00;4985104;28;20377;-68
2021/09/28 12:49:29;;;;;;;;;;;;;;;24.01;22.49;96123.25;4983342;28;20000;-68
2021/09/28 12:51:55;;;;;;;;;;;;;;;24.60;20.89;96123.66;4985356;28;20209;-69
2021/09/28 12:54:21;;;;;;;;;;;;;;;24.77;20.52;96128.97;4985742;28;19917;-69
2021/09/28 12:56:46;;;;;;;;;;;;;;;25.27;20.49;96130.78;4985816;28;19913;-68